sensor_id;sensor_type;location;lat;lon;timestamp;pressure;altitude;pressure_sealevel;temperature;humidity
46955;BME280;32708;51.212;6.788;2023-07-29T00:00:59;100153.28;;;32.29;75.71
46955;BME280;32708;51.212;6.788;2023-07-29T00:03:26;100152.78;;;32.54;74.46
46955;BME280;32708;51.212;6.788;2023-07-29T00:05:52;100155.50;;;31.53;80.77
46955;BME280;32708;51.212;6.788;2023-07-29T00:08:18;100146.22;;;31.86;78.69
46955;BME280;32708;51.212;6.788;2023-07-29T00:10:44;100131.78;;;32.08;76.24
46955;BME280;32708;51.212;6.788;2023-07-29T00:13:11;100146.47;;;31.64;79.76
46955;BME280;32708;51.212;6.788;2023-07-29T00:15:40;100132.16;;;32.00;78.37
46955;BME280;32708;51.212;6.788;2023-07-29T00:18:06;100127.03;;;32.14;76.78
46955;BME280;32708;51.212;6.788;2023-07-29T00:20:32;100131.66;;;31.87;78.46
46955;BME280;32708;51.212;6.788;2023-07-29T00:22:58;100117.81;;;32.28;75.37
46955;BME280;32708;51.212;6.788;2023-07-29T00:25:24;100129.41;;;31.91;77.98
46955;BME280;32708;51.212;6.788;2023-07-29T00:27:50;100122.84;;;32.48;76.05
46955;BME280;32708;51.212;6.788;2023-07-29T00:30:17;100122.81;;;32.87;72.99
46955;BME280;32708;51.212;6.788;2023-07-29T00:32:43;100125.41;;;33.20;72.25
46955;BME280;32708;51.212;6.788;2023-07-29T00:35:09;100132.44;;;32.65;73.16
46955;BME280;32708;51.212;6.788;2023-07-29T00:37:36;100131.44;;;31.67;79.77
46955;BME280;32708;51.212;6.788;2023-07-29T00:40:15;100115.38;;;31.82;76.16
46955;BME280;32708;51.212;6.788;2023-07-29T00:42:42;100120.06;;;32.24;76.62
46955;BME280;32708;51.212;6.788;2023-07-29T00:45:09;100109.78;;;32.50;73.71
46955;BME280;32708;51.212;6.788;2023-07-29T00:47:37;100113.63;;;32.77;74.00
46955;BME280;32708;51.212;6.788;2023-07-29T00:50:05;100105.22;;;32.82;73.59
46955;BME280;32708;51.212;6.788;2023-07-29T00:52:32;100102.25;;;33.01;70.99
46955;BME280;32708;51.212;6.788;2023-07-29T00:54:59;100105.03;;;33.16;71.62
46955;BME280;32708;51.212;6.788;2023-07-29T00:57:26;100099.69;;;32.73;73.01
46955;BME280;32708;51.212;6.788;2023-07-29T00:59:52;100112.44;;;32.54;73.18
46955;BME280;32708;51.212;6.788;2023-07-29T01:02:20;100106.78;;;32.83;70.85
46955;BME280;32708;51.212;6.788;2023-07-29T01:04:58;100107.22;;;31.51;77.35
46955;BME280;32708;51.212;6.788;2023-07-29T01:07:41;100109.44;;;31.71;77.53
46955;BME280;32708;51.212;6.788;2023-07-29T01:14:41;100098.63;;;32.17;76.19
46955;BME280;32708;51.212;6.788;2023-07-29T01:16:47;100097.44;;;31.61;76.75
46955;BME280;32708;51.212;6.788;2023-07-29T01:19:55;100106.38;;;31.60;78.77
46955;BME280;32708;51.212;6.788;2023-07-29T01:22:27;100087.91;;;31.83;77.22
46955;BME280;32708;51.212;6.788;2023-07-29T01:24:53;100088.47;;;32.11;74.69
46955;BME280;32708;51.212;6.788;2023-07-29T01:27:19;100088.47;;;32.49;75.25
46955;BME280;32708;51.212;6.788;2023-07-29T01:29:45;100086.50;;;32.70;73.61
46955;BME280;32708;51.212;6.788;2023-07-29T01:35:28;100091.13;;;32.97;72.45
46955;BME280;32708;51.212;6.788;2023-07-29T01:38:19;100091.38;;;32.84;70.85
46955;BME280;32708;51.212;6.788;2023-07-29T01:40:50;100087.78;;;32.69;71.18
46955;BME280;32708;51.212;6.788;2023-07-29T01:43:17;100088.56;;;32.01;74.86
46955;BME280;32708;51.212;6.788;2023-07-29T01:45:44;100096.56;;;32.56;74.53
46955;BME280;32708;51.212;6.788;2023-07-29T01:48:10;100090.81;;;32.51;74.19
46955;BME280;32708;51.212;6.788;2023-07-29T01:50:37;100083.34;;;32.24;73.13
46955;BME280;32708;51.212;6.788;2023-07-29T01:53:03;100081.47;;;32.21;73.47
46955;BME280;32708;51.212;6.788;2023-07-29T01:55:29;100082.13;;;31.77;75.83
46955;BME280;32708;51.212;6.788;2023-07-29T01:57:55;100085.59;;;31.48;76.69
46955;BME280;32708;51.212;6.788;2023-07-29T02:00:23;100075.19;;;31.87;75.49
46955;BME280;32708;51.212;6.788;2023-07-29T02:02:49;100067.59;;;31.69;76.32
46955;BME280;32708;51.212;6.788;2023-07-29T02:05:15;100078.16;;;30.93;80.63
46955;BME280;32708;51.212;6.788;2023-07-29T02:07:41;100063.38;;;31.41;77.65
46955;BME280;32708;51.212;6.788;2023-07-29T02:10:08;100057.34;;;31.81;77.16
46955;BME280;32708;51.212;6.788;2023-07-29T02:12:34;100056.66;;;32.25;75.41
46955;BME280;32708;51.212;6.788;2023-07-29T02:15:01;100059.53;;;32.40;72.25
46955;BME280;32708;51.212;6.788;2023-07-29T02:17:28;100072.88;;;32.39;74.43
46955;BME280;32708;51.212;6.788;2023-07-29T02:19:54;100078.22;;;31.50;75.21
46955;BME280;32708;51.212;6.788;2023-07-29T02:22:20;100084.25;;;32.30;75.25
46955;BME280;32708;51.212;6.788;2023-07-29T02:24:46;100080.19;;;32.07;75.82
46955;BME280;32708;51.212;6.788;2023-07-29T02:27:12;100077.16;;;31.96;75.53
46955;BME280;32708;51.212;6.788;2023-07-29T02:29:38;100078.59;;;32.30;74.38
46955;BME280;32708;51.212;6.788;2023-07-29T02:32:05;100070.97;;;32.21;74.19
46955;BME280;32708;51.212;6.788;2023-07-29T02:34:31;100075.47;;;31.89;75.35
46955;BME280;32708;51.212;6.788;2023-07-29T02:36:57;100073.88;;;31.64;77.69
46955;BME280;32708;51.212;6.788;2023-07-29T02:39:23;100066.22;;;31.41;78.16
46955;BME280;32708;51.212;6.788;2023-07-29T02:41:49;100063.50;;;31.70;75.20
46955;BME280;32708;51.212;6.788;2023-07-29T02:44:16;100064.41;;;32.00;77.08
46955;BME280;32708;51.212;6.788;2023-07-29T02:46:42;100066.72;;;31.87;76.91
46955;BME280;32708;51.212;6.788;2023-07-29T02:49:08;100061.25;;;31.60;77.61
46955;BME280;32708;51.212;6.788;2023-07-29T02:51:34;100068.44;;;31.85;75.12
46955;BME280;32708;51.212;6.788;2023-07-29T02:54:01;100078.63;;;32.06;76.02
46955;BME280;32708;51.212;6.788;2023-07-29T02:56:27;100073.72;;;31.92;76.26
46955;BME280;32708;51.212;6.788;2023-07-29T02:58:54;100077.69;;;31.37;77.97
46955;BME280;32708;51.212;6.788;2023-07-29T03:01:20;100076.00;;;31.21;79.50
46955;BME280;32708;51.212;6.788;2023-07-29T03:03:46;100085.38;;;30.94;81.69
46955;BME280;32708;51.212;6.788;2023-07-29T03:06:14;100088.22;;;31.28;79.22
46955;BME280;32708;51.212;6.788;2023-07-29T03:08:40;100078.09;;;31.69;77.42
46955;BME280;32708;51.212;6.788;2023-07-29T03:11:10;100092.63;;;30.68;80.52
46955;BME280;32708;51.212;6.788;2023-07-29T03:13:37;100084.34;;;30.74;81.09
46955;BME280;32708;51.212;6.788;2023-07-29T03:16:09;100074.50;;;30.41;80.68
46955;BME280;32708;51.212;6.788;2023-07-29T03:18:38;100070.00;;;31.38;77.05
46955;BME280;32708;51.212;6.788;2023-07-29T03:21:04;100064.78;;;31.69;77.61
46955;BME280;32708;51.212;6.788;2023-07-29T03:23:33;100063.00;;;31.81;75.54
46955;BME280;32708;51.212;6.788;2023-07-29T03:26:02;100062.97;;;32.20;74.74
46955;BME280;32708;51.212;6.788;2023-07-29T03:28:33;100067.03;;;32.43;74.01
46955;BME280;32708;51.212;6.788;2023-07-29T03:30:59;100050.38;;;32.06;73.71
46955;BME280;32708;51.212;6.788;2023-07-29T03:33:26;100047.84;;;31.69;75.26
46955;BME280;32708;51.212;6.788;2023-07-29T03:35:53;100046.22;;;31.20;78.30
46955;BME280;32708;51.212;6.788;2023-07-29T03:38:19;100054.34;;;31.85;75.71
46955;BME280;32708;51.212;6.788;2023-07-29T03:40:46;100041.88;;;31.91;74.58
46955;BME280;32708;51.212;6.788;2023-07-29T03:43:12;100049.22;;;32.13;72.91
46955;BME280;32708;51.212;6.788;2023-07-29T03:45:40;100043.41;;;32.16;73.73
46955;BME280;32708;51.212;6.788;2023-07-29T03:48:06;100045.94;;;32.29;73.36
46955;BME280;32708;51.212;6.788;2023-07-29T03:50:35;100054.97;;;32.03;74.67
46955;BME280;32708;51.212;6.788;2023-07-29T03:53:03;100070.34;;;31.21;77.18
46955;BME280;32708;51.212;6.788;2023-07-29T03:55:30;100084.19;;;30.59;80.15
46955;BME280;32708;51.212;6.788;2023-07-29T03:58:00;100073.06;;;31.73;76.46
46955;BME280;32708;51.212;6.788;2023-07-29T04:00:27;100064.47;;;31.67;76.04
46955;BME280;32708;51.212;6.788;2023-07-29T04:02:54;100072.50;;;31.36;78.04
46955;BME280;32708;51.212;6.788;2023-07-29T04:05:20;100070.78;;;31.38;77.76
46955;BME280;32708;51.212;6.788;2023-07-29T04:07:48;100067.72;;;31.51;78.02
46955;BME280;32708;51.212;6.788;2023-07-29T04:10:15;100060.88;;;31.67;76.06
46955;BME280;32708;51.212;6.788;2023-07-29T04:12:43;100065.84;;;31.72;76.04
46955;BME280;32708;51.212;6.788;2023-07-29T04:15:09;100058.72;;;31.86;76.32
46955;BME280;32708;51.212;6.788;2023-07-29T04:17:36;100056.25;;;31.78;74.06
46955;BME280;32708;51.212;6.788;2023-07-29T04:20:03;100057.03;;;31.55;76.73
46955;BME280;32708;51.212;6.788;2023-07-29T04:22:33;100078.41;;;31.71;75.98
46955;BME280;32708;51.212;6.788;2023-07-29T04:24:59;100082.59;;;31.75;75.65
46955;BME280;32708;51.212;6.788;2023-07-29T04:27:26;100094.63;;;31.28;77.34
46955;BME280;32708;51.212;6.788;2023-07-29T04:29:52;100101.25;;;31.25;78.28
46955;BME280;32708;51.212;6.788;2023-07-29T04:32:18;100101.31;;;31.40;77.45
46955;BME280;32708;51.212;6.788;2023-07-29T04:34:44;100107.84;;;31.13;79.58
46955;BME280;32708;51.212;6.788;2023-07-29T04:37:10;100103.06;;;30.95;79.57
46955;BME280;32708;51.212;6.788;2023-07-29T04:39:36;100121.44;;;30.35;81.16
46955;BME280;32708;51.212;6.788;2023-07-29T04:42:03;100122.34;;;30.05;84.10
46955;BME280;32708;51.212;6.788;2023-07-29T04:44:29;100132.00;;;29.67;85.41
46955;BME280;32708;51.212;6.788;2023-07-29T04:46:55;100123.13;;;30.05;83.04
46955;BME280;32708;51.212;6.788;2023-07-29T04:49:21;100119.38;;;29.99;84.37
46955;BME280;32708;51.212;6.788;2023-07-29T04:51:47;100113.41;;;29.79;84.97
46955;BME280;32708;51.212;6.788;2023-07-29T04:54:14;100113.25;;;29.24;87.18
46955;BME280;32708;51.212;6.788;2023-07-29T04:56:40;100103.94;;;29.05;87.76
46955;BME280;32708;51.212;6.788;2023-07-29T04:59:08;100098.16;;;30.17;84.12
46955;BME280;32708;51.212;6.788;2023-07-29T05:01:35;100094.50;;;30.07;83.46
46955;BME280;32708;51.212;6.788;2023-07-29T05:04:01;100085.03;;;30.92;80.72
46955;BME280;32708;51.212;6.788;2023-07-29T05:06:27;100083.72;;;30.60;80.79
46955;BME280;32708;51.212;6.788;2023-07-29T05:08:57;100070.84;;;31.20;79.38
46955;BME280;32708;51.212;6.788;2023-07-29T05:11:23;100073.50;;;31.14;79.02
46955;BME280;32708;51.212;6.788;2023-07-29T05:13:51;100066.22;;;31.41;77.59
46955;BME280;32708;51.212;6.788;2023-07-29T05:16:17;100081.16;;;30.90;78.00
46955;BME280;32708;51.212;6.788;2023-07-29T05:18:43;100088.63;;;30.93;76.25
46955;BME280;32708;51.212;6.788;2023-07-29T05:21:09;100095.13;;;30.66;80.61
46955;BME280;32708;51.212;6.788;2023-07-29T05:23:37;100095.06;;;31.36;77.00
46955;BME280;32708;51.212;6.788;2023-07-29T05:26:03;100100.91;;;30.62;79.74
46955;BME280;32708;51.212;6.788;2023-07-29T05:28:29;100121.75;;;30.47;81.14
46955;BME280;32708;51.212;6.788;2023-07-29T05:30:55;100117.81;;;30.72;80.33
46955;BME280;32708;51.212;6.788;2023-07-29T05:33:21;100121.00;;;30.19;80.26
46955;BME280;32708;51.212;6.788;2023-07-29T05:35:48;100121.91;;;30.34;80.63
46955;BME280;32708;51.212;6.788;2023-07-29T05:38:15;100126.06;;;29.74;84.03
46955;BME280;32708;51.212;6.788;2023-07-29T05:40:41;100136.31;;;30.27;82.90
46955;BME280;32708;51.212;6.788;2023-07-29T05:43:07;100124.25;;;30.54;81.49
46955;BME280;32708;51.212;6.788;2023-07-29T05:45:33;100123.09;;;29.69;83.72
46955;BME280;32708;51.212;6.788;2023-07-29T05:48:00;100125.19;;;30.60;81.61
46955;BME280;32708;51.212;6.788;2023-07-29T05:50:26;100135.84;;;30.37;80.52
46955;BME280;32708;51.212;6.788;2023-07-29T05:52:52;100146.25;;;29.82;82.71
46955;BME280;32708;51.212;6.788;2023-07-29T05:55:18;100150.16;;;28.60;86.91
46955;BME280;32708;51.212;6.788;2023-07-29T05:57:44;100164.25;;;28.69;83.95
46955;BME280;32708;51.212;6.788;2023-07-29T06:00:11;100158.91;;;28.84;81.63
46955;BME280;32708;51.212;6.788;2023-07-29T06:02:40;100147.97;;;29.39;79.65
46955;BME280;32708;51.212;6.788;2023-07-29T06:05:14;100164.25;;;29.13;78.99
46955;BME280;32708;51.212;6.788;2023-07-29T06:07:41;100167.44;;;29.65;77.17
46955;BME280;32708;51.212;6.788;2023-07-29T06:10:15;100169.78;;;29.57;76.84
46955;BME280;32708;51.212;6.788;2023-07-29T06:12:46;100163.22;;;29.51;77.35
46955;BME280;32708;51.212;6.788;2023-07-29T06:15:12;100168.28;;;29.83;76.40
46955;BME280;32708;51.212;6.788;2023-07-29T06:17:41;100175.59;;;30.30;74.19
46955;BME280;32708;51.212;6.788;2023-07-29T06:20:08;100170.78;;;29.72;76.06
46955;BME280;32708;51.212;6.788;2023-07-29T06:22:34;100178.88;;;30.38;76.55
46955;BME280;32708;51.212;6.788;2023-07-29T06:25:00;100173.03;;;29.96;77.40
46955;BME280;32708;51.212;6.788;2023-07-29T06:27:26;100180.50;;;29.80;77.82
46955;BME280;32708;51.212;6.788;2023-07-29T06:29:52;100184.72;;;29.45;78.02
46955;BME280;32708;51.212;6.788;2023-07-29T06:32:18;100186.41;;;28.89;78.35
46955;BME280;32708;51.212;6.788;2023-07-29T06:34:45;100187.59;;;29.23;77.39
46955;BME280;32708;51.212;6.788;2023-07-29T06:37:11;100187.88;;;29.87;74.06
46955;BME280;32708;51.212;6.788;2023-07-29T06:39:37;100187.94;;;29.34;75.89
46955;BME280;32708;51.212;6.788;2023-07-29T06:42:03;100179.56;;;29.12;75.77
46955;BME280;32708;51.212;6.788;2023-07-29T06:44:29;100167.59;;;30.10;70.25
46955;BME280;32708;51.212;6.788;2023-07-29T06:46:57;100169.03;;;30.24;71.44
46955;BME280;32708;51.212;6.788;2023-07-29T06:49:23;100164.03;;;30.37;70.85
46955;BME280;32708;51.212;6.788;2023-07-29T06:51:49;100163.97;;;31.02;69.10
46955;BME280;32708;51.212;6.788;2023-07-29T06:54:17;100163.16;;;31.10;67.46
46955;BME280;32708;51.212;6.788;2023-07-29T06:56:43;100175.16;;;29.73;72.68
46955;BME280;32708;51.212;6.788;2023-07-29T06:59:09;100174.13;;;30.07;72.31
46955;BME280;32708;51.212;6.788;2023-07-29T07:01:35;100178.66;;;29.15;75.86
46955;BME280;32708;51.212;6.788;2023-07-29T07:04:02;100180.56;;;30.08;73.24
46955;BME280;32708;51.212;6.788;2023-07-29T07:06:28;100181.69;;;30.20;71.02
46955;BME280;32708;51.212;6.788;2023-07-29T07:08:54;100177.81;;;30.72;70.61
46955;BME280;32708;51.212;6.788;2023-07-29T07:11:20;100177.34;;;31.34;69.73
46955;BME280;32708;51.212;6.788;2023-07-29T07:13:46;100171.63;;;31.10;69.50
46955;BME280;32708;51.212;6.788;2023-07-29T07:16:12;100160.75;;;31.27;69.58
46955;BME280;32708;51.212;6.788;2023-07-29T07:18:38;100168.38;;;30.93;70.29
46955;BME280;32708;51.212;6.788;2023-07-29T07:21:05;100162.91;;;31.41;68.44
46955;BME280;32708;51.212;6.788;2023-07-29T07:23:31;100176.03;;;30.29;71.36
46955;BME280;32708;51.212;6.788;2023-07-29T07:25:57;100174.50;;;31.76;68.12
46955;BME280;32708;51.212;6.788;2023-07-29T07:28:23;100163.72;;;32.23;64.61
46955;BME280;32708;51.212;6.788;2023-07-29T07:30:49;100180.22;;;31.91;65.14
46955;BME280;32708;51.212;6.788;2023-07-29T07:33:15;100191.75;;;31.45;67.58
46955;BME280;32708;51.212;6.788;2023-07-29T07:35:42;100185.16;;;32.05;64.07
46955;BME280;32708;51.212;6.788;2023-07-29T07:38:09;100187.16;;;31.90;65.39
46955;BME280;32708;51.212;6.788;2023-07-29T07:40:36;100174.88;;;32.95;60.12
46955;BME280;32708;51.212;6.788;2023-07-29T07:43:02;100172.66;;;34.39;56.24
46955;BME280;32708;51.212;6.788;2023-07-29T07:45:28;100169.31;;;34.20;56.33
46955;BME280;32708;51.212;6.788;2023-07-29T07:47:55;100170.75;;;34.77;55.02
46955;BME280;32708;51.212;6.788;2023-07-29T07:50:22;100174.66;;;34.80;52.60
46955;BME280;32708;51.212;6.788;2023-07-29T07:52:50;100191.22;;;32.76;58.26
46955;BME280;32708;51.212;6.788;2023-07-29T07:55:16;100178.13;;;32.64;57.54
46955;BME280;32708;51.212;6.788;2023-07-29T07:57:42;100174.72;;;33.63;56.04
46955;BME280;32708;51.212;6.788;2023-07-29T08:00:09;100188.72;;;32.15;56.63
46955;BME280;32708;51.212;6.788;2023-07-29T08:02:44;100178.00;;;33.11;55.42
46955;BME280;32708;51.212;6.788;2023-07-29T08:05:10;100182.28;;;33.51;56.19
46955;BME280;32708;51.212;6.788;2023-07-29T08:07:36;100165.88;;;33.40;53.23
46955;BME280;32708;51.212;6.788;2023-07-29T08:10:02;100165.75;;;32.46;54.06
46955;BME280;32708;51.212;6.788;2023-07-29T08:12:29;100169.00;;;33.28;53.17
46955;BME280;32708;51.212;6.788;2023-07-29T08:14:56;100164.78;;;32.25;55.32
46955;BME280;32708;51.212;6.788;2023-07-29T08:17:22;100170.59;;;34.60;50.37
46955;BME280;32708;51.212;6.788;2023-07-29T08:19:48;100176.06;;;33.03;53.45
46955;BME280;32708;51.212;6.788;2023-07-29T08:22:14;100171.53;;;32.67;53.13
46955;BME280;32708;51.212;6.788;2023-07-29T08:24:43;100163.78;;;33.56;50.98
46955;BME280;32708;51.212;6.788;2023-07-29T08:27:09;100160.16;;;33.05;51.24
46955;BME280;32708;51.212;6.788;2023-07-29T08:29:36;100158.78;;;34.01;48.86
46955;BME280;32708;51.212;6.788;2023-07-29T08:32:02;100160.63;;;34.44;48.12
46955;BME280;32708;51.212;6.788;2023-07-29T08:34:29;100162.75;;;35.70;45.50
46955;BME280;32708;51.212;6.788;2023-07-29T08:36:55;100171.09;;;35.42;45.91
46955;BME280;32708;51.212;6.788;2023-07-29T08:39:21;100158.25;;;35.47;45.76
46955;BME280;32708;51.212;6.788;2023-07-29T08:42:07;100161.63;;;35.19;45.49
46955;BME280;32708;51.212;6.788;2023-07-29T08:44:42;100152.03;;;34.59;46.02
46955;BME280;32708;51.212;6.788;2023-07-29T08:47:09;100151.50;;;35.87;44.01
46955;BME280;32708;51.212;6.788;2023-07-29T08:49:38;100153.88;;;36.71;42.20
46955;BME280;32708;51.212;6.788;2023-07-29T08:52:06;100143.22;;;35.41;44.07
46955;BME280;32708;51.212;6.788;2023-07-29T08:54:33;100154.16;;;36.67;41.93
46955;BME280;32708;51.212;6.788;2023-07-29T08:57:00;100157.59;;;36.17;41.70
46955;BME280;32708;51.212;6.788;2023-07-29T08:59:28;100169.31;;;35.13;44.43
46955;BME280;32708;51.212;6.788;2023-07-29T09:01:56;100167.19;;;34.36;46.05
46955;BME280;32708;51.212;6.788;2023-07-29T09:04:23;100177.09;;;35.50;44.40
46955;BME280;32708;51.212;6.788;2023-07-29T09:06:53;100178.75;;;34.79;46.04
46955;BME280;32708;51.212;6.788;2023-07-29T09:09:21;100172.19;;;33.65;47.98
46955;BME280;32708;51.212;6.788;2023-07-29T09:11:47;100173.22;;;32.49;50.38
46955;BME280;32708;51.212;6.788;2023-07-29T09:14:14;100196.50;;;32.20;53.78
46955;BME280;32708;51.212;6.788;2023-07-29T09:16:41;100189.50;;;32.40;53.47
46955;BME280;32708;51.212;6.788;2023-07-29T09:19:08;100197.06;;;32.34;54.73
46955;BME280;32708;51.212;6.788;2023-07-29T09:21:38;100195.56;;;31.99;54.96
46955;BME280;32708;51.212;6.788;2023-07-29T09:24:05;100195.44;;;32.42;54.33
46955;BME280;32708;51.212;6.788;2023-07-29T09:26:33;100195.88;;;32.79;53.23
46955;BME280;32708;51.212;6.788;2023-07-29T09:29:00;100198.84;;;31.98;56.27
46955;BME280;32708;51.212;6.788;2023-07-29T09:31:28;100191.69;;;31.03;58.50
46955;BME280;32708;51.212;6.788;2023-07-29T09:34:03;100185.00;;;31.76;57.03
46955;BME280;32708;51.212;6.788;2023-07-29T09:36:33;100196.41;;;31.48;57.43
46955;BME280;32708;51.212;6.788;2023-07-29T09:39:00;100202.97;;;31.55;57.64
46955;BME280;32708;51.212;6.788;2023-07-29T09:41:28;100202.78;;;31.25;59.19
46955;BME280;32708;51.212;6.788;2023-07-29T09:44:02;100206.25;;;31.02;60.27
46955;BME280;32708;51.212;6.788;2023-07-29T09:46:36;100198.06;;;31.13;58.17
46955;BME280;32708;51.212;6.788;2023-07-29T09:49:05;100198.47;;;32.29;56.43
46955;BME280;32708;51.212;6.788;2023-07-29T09:51:37;100200.00;;;30.88;58.00
46955;BME280;32708;51.212;6.788;2023-07-29T09:54:04;100204.09;;;30.87;60.16
46955;BME280;32708;51.212;6.788;2023-07-29T09:56:31;100194.16;;;32.81;54.91
46955;BME280;32708;51.212;6.788;2023-07-29T09:58:57;100195.63;;;31.90;56.62
46955;BME280;32708;51.212;6.788;2023-07-29T10:01:24;100190.69;;;33.01;54.28
46955;BME280;32708;51.212;6.788;2023-07-29T10:03:51;100192.91;;;33.12;51.62
46955;BME280;32708;51.212;6.788;2023-07-29T10:06:18;100193.75;;;32.11;53.82
46955;BME280;32708;51.212;6.788;2023-07-29T10:08:45;100197.28;;;32.21;54.17
46955;BME280;32708;51.212;6.788;2023-07-29T10:11:11;100188.63;;;32.48;53.33
46955;BME280;32708;51.212;6.788;2023-07-29T10:13:38;100186.44;;;32.67;52.84
46955;BME280;32708;51.212;6.788;2023-07-29T10:16:05;100183.13;;;32.83;51.24
46955;BME280;32708;51.212;6.788;2023-07-29T10:18:33;100179.44;;;33.86;49.51
46955;BME280;32708;51.212;6.788;2023-07-29T10:21:01;100172.84;;;35.02;46.38
46955;BME280;32708;51.212;6.788;2023-07-29T10:23:38;100179.97;;;34.46;49.32
46955;BME280;32708;51.212;6.788;2023-07-29T10:26:11;100179.03;;;33.93;48.94
46955;BME280;32708;51.212;6.788;2023-07-29T10:28:46;100184.28;;;33.86;49.44
46955;BME280;32708;51.212;6.788;2023-07-29T10:31:15;100182.66;;;33.00;51.69
46955;BME280;32708;51.212;6.788;2023-07-29T10:33:45;100193.16;;;33.73;50.82
46955;BME280;32708;51.212;6.788;2023-07-29T10:36:13;100195.75;;;33.77;50.65
46955;BME280;32708;51.212;6.788;2023-07-29T10:38:41;100192.88;;;32.82;50.77
46955;BME280;32708;51.212;6.788;2023-07-29T10:41:07;100187.47;;;32.55;51.10
46955;BME280;32708;51.212;6.788;2023-07-29T10:43:36;100195.72;;;32.82;51.07
46955;BME280;32708;51.212;6.788;2023-07-29T10:46:23;100193.22;;;31.13;56.57
46955;BME280;32708;51.212;6.788;2023-07-29T10:48:56;100191.25;;;32.37;52.69
46955;BME280;32708;51.212;6.788;2023-07-29T10:51:34;100185.66;;;32.81;50.98
46955;BME280;32708;51.212;6.788;2023-07-29T10:54:10;100176.97;;;33.59;50.21
46955;BME280;32708;51.212;6.788;2023-07-29T10:56:46;100177.69;;;34.30;48.32
46955;BME280;32708;51.212;6.788;2023-07-29T11:01:50;100162.56;;;34.85;44.85
46955;BME280;32708;51.212;6.788;2023-07-29T11:12:48;100172.44;;;35.47;43.06
46955;BME280;32708;51.212;6.788;2023-07-29T11:15:26;100163.75;;;34.26;45.35
46955;BME280;32708;51.212;6.788;2023-07-29T11:18:02;100171.03;;;33.92;46.06
46955;BME280;32708;51.212;6.788;2023-07-29T11:20:33;100177.44;;;33.57;46.89
46955;BME280;32708;51.212;6.788;2023-07-29T11:23:02;100180.63;;;33.30;47.82
46955;BME280;32708;51.212;6.788;2023-07-29T11:25:31;100179.03;;;33.79;46.27
46955;BME280;32708;51.212;6.788;2023-07-29T11:28:00;100174.28;;;32.13;51.69
46955;BME280;32708;51.212;6.788;2023-07-29T11:30:26;100189.06;;;31.84;54.12
46955;BME280;32708;51.212;6.788;2023-07-29T11:32:54;100186.38;;;32.38;54.64
46955;BME280;32708;51.212;6.788;2023-07-29T11:35:22;100177.78;;;32.85;52.28
46955;BME280;32708;51.212;6.788;2023-07-29T11:37:51;100182.94;;;32.72;52.52
46955;BME280;32708;51.212;6.788;2023-07-29T11:40:20;100177.38;;;33.87;50.53
46955;BME280;32708;51.212;6.788;2023-07-29T11:42:50;100177.38;;;34.68;48.75
46955;BME280;32708;51.212;6.788;2023-07-29T11:45:18;100173.84;;;33.92;48.98
46955;BME280;32708;51.212;6.788;2023-07-29T11:47:45;100167.81;;;32.75;51.39
46955;BME280;32708;51.212;6.788;2023-07-29T11:50:13;100171.53;;;33.40;50.76
46955;BME280;32708;51.212;6.788;2023-07-29T11:52:43;100169.41;;;32.91;52.17
46955;BME280;32708;51.212;6.788;2023-07-29T11:55:13;100177.31;;;33.02;50.42
46955;BME280;32708;51.212;6.788;2023-07-29T11:57:41;100165.66;;;33.59;49.25
46955;BME280;32708;51.212;6.788;2023-07-29T12:00:10;100173.47;;;32.75;50.64
46955;BME280;32708;51.212;6.788;2023-07-29T12:02:40;100164.09;;;32.54;52.37
46955;BME280;32708;51.212;6.788;2023-07-29T12:05:10;100166.53;;;33.50;51.79
46955;BME280;32708;51.212;6.788;2023-07-29T12:07:39;100160.28;;;34.63;47.45
46955;BME280;32708;51.212;6.788;2023-07-29T12:10:07;100167.47;;;35.10;46.96
46955;BME280;32708;51.212;6.788;2023-07-29T12:12:38;100168.06;;;34.42;47.78
46955;BME280;32708;51.212;6.788;2023-07-29T12:15:07;100153.44;;;34.95;45.30
46955;BME280;32708;51.212;6.788;2023-07-29T12:17:40;100156.91;;;35.11;45.23
46955;BME280;32708;51.212;6.788;2023-07-29T12:20:11;100149.16;;;34.13;45.79
46955;BME280;32708;51.212;6.788;2023-07-29T12:22:37;100144.72;;;34.79;45.31
46955;BME280;32708;51.212;6.788;2023-07-29T12:25:04;100145.03;;;34.86;45.15
46955;BME280;32708;51.212;6.788;2023-07-29T12:27:31;100152.44;;;34.78;44.51
46955;BME280;32708;51.212;6.788;2023-07-29T12:29:57;100146.84;;;35.41;42.67
46955;BME280;32708;51.212;6.788;2023-07-29T12:32:26;100151.78;;;34.89;43.85
46955;BME280;32708;51.212;6.788;2023-07-29T12:34:54;100146.97;;;34.95;44.21
46955;BME280;32708;51.212;6.788;2023-07-29T12:37:20;100128.75;;;36.41;40.93
46955;BME280;32708;51.212;6.788;2023-07-29T12:39:50;100138.66;;;35.54;42.40
46955;BME280;32708;51.212;6.788;2023-07-29T12:42:16;100122.88;;;36.73;39.96
46955;BME280;32708;51.212;6.788;2023-07-29T12:44:42;100135.34;;;35.62;41.49
46955;BME280;32708;51.212;6.788;2023-07-29T12:47:08;100131.41;;;34.38;44.84
46955;BME280;32708;51.212;6.788;2023-07-29T12:49:37;100126.66;;;33.68;46.65
46955;BME280;32708;51.212;6.788;2023-07-29T12:52:03;100126.13;;;34.26;46.57
46955;BME280;32708;51.212;6.788;2023-07-29T12:54:29;100131.06;;;35.40;42.86
46955;BME280;32708;51.212;6.788;2023-07-29T12:56:55;100137.00;;;34.53;44.41
46955;BME280;32708;51.212;6.788;2023-07-29T12:59:21;100128.94;;;34.98;42.69
46955;BME280;32708;51.212;6.788;2023-07-29T13:01:48;100127.22;;;34.54;44.01
46955;BME280;32708;51.212;6.788;2023-07-29T13:04:14;100129.81;;;35.10;43.77
46955;BME280;32708;51.212;6.788;2023-07-29T13:06:40;100138.50;;;34.74;43.16
46955;BME280;32708;51.212;6.788;2023-07-29T13:09:06;100133.97;;;33.40;46.99
46955;BME280;32708;51.212;6.788;2023-07-29T13:11:33;100127.84;;;33.27;47.46